キンシャサ の空港の天気 - METARとTAF

キンシャサ/ヌジリ国際空港 ( FZAA / FIH ) - コンゴ民主共和国 キンシャサ
飛行場実況気象(Metar)
観測時間10/21 12:00 WAT (10/21 11:00 UTC)
風向・風速北西 3m/s
視程6000m
天気現象
全天の4割程度の雲 雲底高度 550m
全天の8割程度の雲 雲底高度 610m
気温28℃
湿度66%
気圧1014hPa
METARFZAA 211100Z 31006KT 6000 SCT018 BKN020 28/21 Q1014 NOSIG
過去の天気等 Google飛行場航空写真 Wunderground天気予報

過去48時間のMETAR

飛行場予報(TAF)
発表時間: 10/21 12:00 WAT (10/21 11:00 UTC)
予報対象時間: 21日13時 WAT ~ 22日19時 WAT
風向・風速西 3m/s
視程6000m
全天の8割程度の雲 雲底高度 610m
21日14時 WAT ~ 21日17時 WAT に徐々に
全天の4割程度の雲 雲底高度 730m
少しの積乱雲 雲底高度 910m
21日19時 WAT ~ 21日23時 WAT に一時的に
天気現象
21日23時 WAT ~ 22日1時 WAT に徐々に
全天の8割程度の雲 雲底高度 490m
22日12時 WAT ~ 22日14時 WAT に徐々に
全天の4割程度の雲 雲底高度 730m
少しの積乱雲 雲底高度 910m
TAF FZAA 211100Z 2112/2218 26006KT 6000 BKN020
BECMG 2113/2116 SCT024 FEW030CB
TEMPO 2118/2122 TS
BECMG 2122/2200 BKN016
BECMG 2211/2213 SCT024 FEW030CB